createdAt,value
2022-12-15T00:00:11.932Z,991.47
2022-12-15T00:01:11.997Z,991.50
2022-12-15T00:02:11.946Z,991.52
2022-12-15T00:03:11.962Z,991.48
2022-12-15T00:04:11.849Z,991.54
2022-12-15T00:05:11.835Z,991.48
2022-12-15T00:06:11.878Z,991.51
2022-12-15T00:07:11.812Z,991.47
2022-12-15T00:08:11.835Z,991.43
2022-12-15T00:09:14.442Z,991.45
2022-12-15T00:10:11.785Z,991.52
2022-12-15T00:11:11.771Z,991.48
2022-12-15T00:12:11.868Z,991.47
2022-12-15T00:13:11.794Z,991.46
2022-12-15T00:14:11.749Z,991.46
2022-12-15T00:15:11.732Z,991.45
2022-12-15T00:16:11.870Z,991.46
2022-12-15T00:17:11.729Z,991.46
2022-12-15T00:18:11.874Z,991.50
2022-12-15T00:19:11.686Z,991.48
2022-12-15T00:20:11.677Z,991.47
2022-12-15T00:21:11.697Z,991.46
2022-12-15T00:22:11.658Z,991.40
2022-12-15T00:23:11.681Z,991.40
2022-12-15T00:24:11.662Z,991.44
2022-12-15T00:25:11.695Z,991.46
2022-12-15T00:26:11.626Z,991.41
2022-12-15T00:27:11.605Z,991.43
2022-12-15T00:28:11.594Z,991.44
2022-12-15T00:29:11.613Z,991.42
2022-12-15T00:30:11.571Z,991.49
2022-12-15T00:31:11.755Z,991.37
2022-12-15T00:32:11.564Z,991.44
2022-12-15T00:33:11.591Z,991.42
2022-12-15T00:34:11.533Z,991.39
2022-12-15T00:35:11.518Z,991.40
2022-12-15T00:36:11.512Z,991.48
2022-12-15T00:37:11.537Z,991.47
2022-12-15T00:38:11.519Z,991.45
2022-12-15T00:39:11.476Z,991.43
2022-12-15T00:40:11.466Z,991.55
2022-12-15T00:41:11.456Z,991.56
2022-12-15T00:42:11.477Z,991.48
2022-12-15T00:43:11.477Z,991.51
2022-12-15T00:44:15.738Z,991.62
2022-12-15T00:45:11.432Z,991.58
2022-12-15T00:46:11.454Z,991.63
2022-12-15T00:47:11.419Z,991.64
2022-12-15T00:48:11.383Z,991.70
2022-12-15T00:49:11.444Z,991.71
2022-12-15T00:50:11.364Z,991.67
2022-12-15T00:51:11.383Z,991.69
2022-12-15T00:52:11.341Z,991.64
2022-12-15T00:53:11.331Z,991.63
2022-12-15T00:54:17.749Z,991.69
2022-12-15T00:55:11.444Z,991.67
2022-12-15T00:56:11.332Z,991.73
2022-12-15T00:57:11.291Z,991.70
2022-12-15T00:58:11.280Z,991.77
2022-12-15T00:59:11.268Z,991.71
2022-12-15T01:00:11.259Z,991.70
2022-12-15T01:01:11.395Z,991.71
2022-12-15T01:02:11.371Z,991.74
2022-12-15T01:03:11.476Z,991.76
2022-12-15T01:04:11.266Z,991.70
2022-12-15T01:05:11.257Z,991.75
2022-12-15T01:06:11.209Z,991.75
2022-12-15T01:07:11.353Z,991.78
2022-12-15T01:08:11.175Z,991.79
2022-12-15T01:09:11.167Z,991.81
2022-12-15T01:10:11.189Z,991.81
2022-12-15T01:11:11.141Z,991.87
2022-12-15T01:12:11.158Z,991.90
2022-12-15T01:13:11.226Z,991.90
2022-12-15T01:14:11.114Z,991.92
2022-12-15T01:15:11.099Z,991.86
2022-12-15T01:16:11.207Z,991.87
2022-12-15T01:17:11.078Z,991.96
2022-12-15T01:18:11.070Z,991.91
2022-12-15T01:19:11.060Z,991.90
2022-12-15T01:20:11.196Z,991.96
2022-12-15T01:21:11.061Z,991.95
2022-12-15T01:22:11.062Z,991.97
2022-12-15T01:23:11.016Z,991.96
2022-12-15T01:24:11.031Z,992.05
2022-12-15T01:25:10.997Z,992.01
2022-12-15T01:26:11.137Z,991.98
2022-12-15T01:27:10.990Z,992.09
2022-12-15T01:28:10.966Z,992.03
2022-12-15T01:29:10.959Z,992.01
2022-12-15T01:30:10.947Z,992.14
2022-12-15T01:31:10.982Z,992.07
2022-12-15T01:32:10.942Z,992.11
2022-12-15T01:33:11.013Z,992.12
2022-12-15T01:34:10.906Z,992.15
2022-12-15T01:35:10.925Z,992.14
2022-12-15T01:36:10.891Z,992.13
2022-12-15T01:37:10.920Z,992.17
2022-12-15T01:38:10.876Z,992.12
2022-12-15T01:39:10.916Z,992.13
2022-12-15T01:40:10.848Z,992.12
2022-12-15T01:41:10.829Z,992.19
2022-12-15T01:42:10.848Z,992.15
2022-12-15T01:43:10.811Z,992.21
2022-12-15T01:44:10.808Z,992.20
2022-12-15T01:45:10.784Z,992.23
2022-12-15T01:46:10.929Z,992.26
2022-12-15T01:47:10.888Z,992.21
2022-12-15T01:48:10.754Z,992.27
2022-12-15T01:49:10.744Z,992.29
2022-12-15T01:50:10.733Z,992.24
2022-12-15T01:51:10.720Z,992.29
2022-12-15T01:52:10.746Z,992.31
2022-12-15T01:53:10.780Z,992.26
2022-12-15T01:54:10.691Z,992.23
2022-12-15T01:55:10.679Z,992.23
2022-12-15T01:56:10.689Z,992.33
2022-12-15T01:57:10.688Z,992.19
2022-12-15T01:58:10.649Z,992.26
2022-12-15T01:59:10.640Z,992.21
2022-12-15T02:00:10.655Z,992.28
2022-12-15T02:01:10.706Z,992.24
2022-12-15T02:02:10.799Z,992.25
2022-12-15T02:03:10.662Z,992.28
2022-12-15T02:04:10.591Z,992.29
2022-12-15T02:05:10.575Z,992.25
2022-12-15T02:06:10.665Z,992.28
2022-12-15T02:07:10.553Z,992.30
2022-12-15T02:08:10.566Z,992.28
2022-12-15T02:09:10.594Z,992.33
2022-12-15T02:10:10.528Z,992.34
2022-12-15T02:11:10.512Z,992.34
2022-12-15T02:12:10.584Z,992.41
2022-12-15T02:13:10.491Z,992.36
2022-12-15T02:14:10.506Z,992.41
2022-12-15T02:15:10.487Z,992.38
2022-12-15T02:16:10.513Z,992.37
2022-12-15T02:17:10.449Z,992.38
2022-12-15T02:18:10.562Z,992.39
2022-12-15T02:19:10.430Z,992.36
2022-12-15T02:20:10.478Z,992.37
2022-12-15T02:21:10.406Z,992.38
2022-12-15T02:22:10.396Z,992.43
2022-12-15T02:23:10.396Z,992.45
2022-12-15T02:24:10.375Z,992.46
2022-12-15T02:25:10.464Z,992.50
2022-12-15T02:26:10.395Z,992.51
2022-12-15T02:27:10.342Z,992.53
2022-12-15T02:28:10.370Z,992.49
2022-12-15T02:29:10.322Z,992.46
2022-12-15T02:30:10.313Z,992.46
2022-12-15T02:31:10.510Z,992.42
2022-12-15T02:32:10.341Z,992.46
2022-12-15T02:33:10.280Z,992.46
2022-12-15T02:34:10.272Z,992.49
2022-12-15T02:35:10.259Z,992.49
2022-12-15T02:36:10.250Z,992.46
2022-12-15T02:37:10.294Z,992.45
2022-12-15T02:38:10.259Z,992.50
2022-12-15T02:39:10.218Z,992.50
2022-12-15T02:40:10.214Z,992.53
2022-12-15T02:41:10.246Z,992.54
2022-12-15T02:42:10.221Z,992.52
2022-12-15T02:43:10.178Z,992.57
2022-12-15T02:44:10.213Z,992.58
2022-12-15T02:45:10.224Z,992.61
2022-12-15T02:46:10.232Z,992.65
2022-12-15T02:47:10.139Z,992.67
2022-12-15T02:48:10.152Z,992.64
2022-12-15T02:49:10.118Z,992.64
2022-12-15T02:50:10.171Z,992.65
2022-12-15T02:51:10.095Z,992.65
2022-12-15T02:52:10.100Z,992.55
2022-12-15T02:53:10.121Z,992.59
2022-12-15T02:54:10.062Z,992.63
2022-12-15T02:55:10.050Z,992.63
2022-12-15T02:56:10.128Z,992.73
2022-12-15T02:57:10.054Z,992.70
2022-12-15T02:58:10.021Z,992.78
2022-12-15T02:59:10.011Z,992.77
2022-12-15T03:00:10.027Z,992.80
2022-12-15T03:01:10.097Z,992.82
2022-12-15T03:02:10.104Z,992.84
2022-12-15T03:03:10.095Z,992.89
2022-12-15T03:04:09.972Z,992.94
2022-12-15T03:05:09.945Z,992.99
2022-12-15T03:06:09.935Z,993.03
2022-12-15T03:07:09.955Z,992.99
2022-12-15T03:08:09.959Z,993.08
2022-12-15T03:09:09.932Z,993.07
2022-12-15T03:10:09.891Z,993.10
2022-12-15T03:11:09.883Z,993.08
2022-12-15T03:12:09.870Z,993.11
2022-12-15T03:13:09.968Z,993.11
2022-12-15T03:14:09.926Z,993.17
2022-12-15T03:15:09.839Z,993.22
2022-12-15T03:16:09.866Z,993.24
2022-12-15T03:17:09.841Z,993.19
2022-12-15T03:18:09.810Z,993.15
2022-12-15T03:19:09.871Z,993.21
2022-12-15T03:20:09.801Z,993.17
2022-12-15T03:21:09.776Z,993.19
2022-12-15T03:22:09.853Z,993.16
2022-12-15T03:23:09.785Z,993.21
2022-12-15T03:24:09.747Z,993.26
2022-12-15T03:25:09.773Z,993.23
2022-12-15T03:26:09.726Z,993.29
2022-12-15T03:27:09.715Z,993.21
2022-12-15T03:28:09.747Z,993.20
2022-12-15T03:29:09.716Z,993.13
2022-12-15T03:30:09.723Z,993.16
2022-12-15T03:31:09.670Z,993.22
2022-12-15T03:32:09.812Z,993.17
2022-12-15T03:33:09.650Z,993.17
2022-12-15T03:34:09.647Z,993.23
2022-12-15T03:35:09.690Z,993.27
2022-12-15T03:36:09.636Z,993.21
2022-12-15T03:37:09.658Z,993.19
2022-12-15T03:38:09.599Z,993.12
2022-12-15T03:39:09.588Z,993.17
2022-12-15T03:40:09.613Z,993.16
2022-12-15T03:41:09.577Z,993.19
2022-12-15T03:42:09.555Z,993.17
2022-12-15T03:43:09.575Z,993.12
2022-12-15T03:44:09.540Z,993.11
2022-12-15T03:45:09.637Z,993.15
2022-12-15T03:46:09.625Z,993.21
2022-12-15T03:47:09.511Z,993.18
2022-12-15T03:48:09.492Z,993.20
2022-12-15T03:49:09.537Z,993.29
2022-12-15T03:50:09.478Z,993.27
2022-12-15T03:51:09.464Z,993.27
2022-12-15T03:52:09.457Z,993.18
2022-12-15T03:53:09.494Z,993.26
2022-12-15T03:54:09.463Z,993.29
2022-12-15T03:55:09.418Z,993.28
2022-12-15T03:56:09.480Z,993.30
2022-12-15T03:57:09.403Z,993.37
2022-12-15T03:58:09.387Z,993.35
2022-12-15T03:59:09.428Z,993.48
2022-12-15T04:00:09.365Z,993.44
2022-12-15T04:01:09.436Z,993.45
2022-12-15T04:02:09.573Z,993.51
2022-12-15T04:03:09.554Z,993.50
2022-12-15T04:04:09.375Z,993.55
2022-12-15T04:05:09.316Z,993.52
2022-12-15T04:06:09.303Z,993.62
2022-12-15T04:07:09.295Z,993.59
2022-12-15T04:08:09.372Z,993.56
2022-12-15T04:09:09.292Z,993.50
2022-12-15T04:10:09.282Z,993.50
2022-12-15T04:11:09.256Z,993.46
2022-12-15T04:12:09.240Z,993.50
2022-12-15T04:13:09.258Z,993.61
2022-12-15T04:14:09.287Z,993.61
2022-12-15T04:15:09.228Z,993.55
2022-12-15T04:16:09.198Z,993.59
2022-12-15T04:17:09.276Z,993.59
2022-12-15T04:18:09.207Z,993.59
2022-12-15T04:19:09.166Z,993.65
2022-12-15T04:20:09.201Z,993.62
2022-12-15T04:21:09.179Z,993.63
2022-12-15T04:22:11.607Z,993.64
2022-12-15T04:23:09.179Z,993.62
2022-12-15T04:24:09.119Z,993.62
2022-12-15T04:25:09.104Z,993.69
2022-12-15T04:26:09.146Z,993.65
2022-12-15T04:27:09.081Z,993.71
2022-12-15T04:28:09.074Z,993.70
2022-12-15T04:29:09.120Z,993.71
2022-12-15T04:30:09.053Z,993.68
2022-12-15T04:31:09.170Z,993.76
2022-12-15T04:32:09.179Z,993.75
2022-12-15T04:33:09.042Z,993.75
2022-12-15T04:34:09.012Z,993.78
2022-12-15T04:35:09.001Z,993.78
2022-12-15T04:36:08.992Z,993.80
2022-12-15T04:37:09.018Z,993.82
2022-12-15T04:38:09.087Z,993.86
2022-12-15T04:39:08.960Z,993.88
2022-12-15T04:40:08.948Z,993.85
2022-12-15T04:41:08.936Z,993.89
2022-12-15T04:42:08.954Z,993.78
2022-12-15T04:43:08.916Z,993.90
2022-12-15T04:44:08.985Z,993.81
2022-12-15T04:45:08.926Z,993.83
2022-12-15T04:46:08.943Z,993.83
2022-12-15T04:47:08.914Z,993.75
2022-12-15T04:48:08.890Z,993.80
2022-12-15T04:49:08.913Z,993.79
2022-12-15T04:50:08.990Z,993.78
2022-12-15T04:51:08.831Z,993.83
2022-12-15T04:52:08.820Z,993.87
2022-12-15T04:53:08.811Z,993.87
2022-12-15T04:54:08.799Z,993.85
2022-12-15T04:55:08.812Z,993.87
2022-12-15T04:56:11.480Z,993.93
2022-12-15T04:57:08.861Z,993.90
2022-12-15T04:58:08.756Z,993.98
2022-12-15T04:59:08.751Z,994.01
2022-12-15T05:00:08.763Z,994.06
2022-12-15T05:01:08.791Z,994.08
2022-12-15T05:02:08.954Z,994.07
2022-12-15T05:03:11.326Z,994.09
2022-12-15T05:04:09.792Z,994.10
2022-12-15T05:05:08.705Z,994.10
2022-12-15T05:06:08.673Z,994.07
2022-12-15T05:07:08.669Z,994.07
2022-12-15T05:08:08.708Z,994.07
2022-12-15T05:09:08.691Z,994.10
2022-12-15T05:10:14.664Z,994.16
2022-12-15T05:11:08.621Z,994.09
2022-12-15T05:12:08.606Z,994.19
2022-12-15T05:13:08.602Z,994.10
2022-12-15T05:14:08.650Z,994.13
2022-12-15T05:15:08.602Z,994.14
2022-12-15T05:16:08.731Z,994.14
2022-12-15T05:17:08.619Z,994.12
2022-12-15T05:18:08.553Z,994.18
2022-12-15T05:19:08.535Z,994.18
2022-12-15T05:20:08.651Z,994.17
2022-12-15T05:21:08.538Z,994.13
2022-12-15T05:22:08.505Z,994.20
2022-12-15T05:23:08.532Z,994.21
2022-12-15T05:24:08.484Z,994.21
2022-12-15T05:25:08.472Z,994.18
2022-12-15T05:26:08.523Z,994.12
2022-12-15T05:27:08.490Z,994.11
2022-12-15T05:28:08.442Z,994.19
2022-12-15T05:29:08.436Z,994.24
2022-12-15T05:30:08.420Z,994.20
2022-12-15T05:31:08.479Z,994.23
2022-12-15T05:32:08.483Z,994.26
2022-12-15T05:33:08.417Z,994.21
2022-12-15T05:34:08.379Z,994.24
2022-12-15T05:35:08.376Z,994.23
2022-12-15T05:36:08.356Z,994.25
2022-12-15T05:37:08.368Z,994.38
2022-12-15T05:38:08.388Z,994.29
2022-12-15T05:39:08.329Z,994.32
2022-12-15T05:40:08.311Z,994.25
2022-12-15T05:41:08.323Z,994.29
2022-12-15T05:42:08.323Z,994.37
2022-12-15T05:43:08.286Z,994.35
2022-12-15T05:44:08.367Z,994.37
2022-12-15T05:45:08.276Z,994.41
2022-12-15T05:46:08.290Z,994.42
2022-12-15T05:47:08.248Z,994.42
2022-12-15T05:48:08.266Z,994.40
2022-12-15T05:49:08.223Z,994.42
2022-12-15T05:50:08.225Z,994.45
2022-12-15T05:51:08.246Z,994.39
2022-12-15T05:52:08.189Z,994.38
2022-12-15T05:53:08.219Z,994.45
2022-12-15T05:54:08.197Z,994.54
2022-12-15T05:55:08.160Z,994.54
2022-12-15T05:56:08.160Z,994.60
2022-12-15T05:57:08.200Z,994.49
2022-12-15T05:58:08.129Z,994.62
2022-12-15T05:59:08.121Z,994.55
2022-12-15T06:00:08.132Z,994.60
2022-12-15T06:01:08.096Z,994.55
2022-12-15T06:02:08.197Z,994.56
2022-12-15T06:03:08.199Z,994.58
2022-12-15T06:04:08.079Z,994.61
2022-12-15T06:05:08.152Z,994.68
2022-12-15T06:06:08.073Z,994.70
2022-12-15T06:07:08.033Z,994.66
2022-12-15T06:08:08.031Z,994.68
2022-12-15T06:09:08.190Z,994.64
2022-12-15T06:10:08.002Z,994.63
2022-12-15T06:11:07.993Z,994.60
2022-12-15T06:12:08.016Z,994.62
2022-12-15T06:13:07.977Z,994.57
2022-12-15T06:14:07.998Z,994.74
2022-12-15T06:15:08.006Z,994.69
2022-12-15T06:16:07.967Z,994.70
2022-12-15T06:17:07.929Z,994.81
2022-12-15T06:18:07.914Z,994.81
2022-12-15T06:19:07.908Z,994.78
2022-12-15T06:20:07.918Z,994.89
2022-12-15T06:21:07.927Z,994.88
2022-12-15T06:22:07.870Z,994.92
2022-12-15T06:23:07.867Z,994.89
2022-12-15T06:24:07.880Z,994.92
2022-12-15T06:25:07.910Z,995.05
2022-12-15T06:26:07.843Z,994.97
2022-12-15T06:27:07.822Z,995.06
2022-12-15T06:28:07.821Z,995.05
2022-12-15T06:29:07.801Z,995.11
2022-12-15T06:30:07.816Z,995.05
2022-12-15T06:31:07.843Z,995.12
2022-12-15T06:32:07.795Z,995.08
2022-12-15T06:33:07.758Z,995.07
2022-12-15T06:34:08.107Z,995.13
2022-12-15T06:35:07.739Z,995.12
2022-12-15T06:36:07.755Z,995.16
2022-12-15T06:37:07.724Z,995.26
2022-12-15T06:38:07.725Z,995.24
2022-12-15T06:39:07.692Z,995.30
2022-12-15T06:40:07.682Z,995.32
2022-12-15T06:41:07.753Z,995.23
2022-12-15T06:42:07.669Z,995.23
2022-12-15T06:43:07.694Z,995.36
2022-12-15T06:44:07.697Z,995.34
2022-12-15T06:45:07.632Z,995.31
2022-12-15T06:46:07.727Z,995.33
2022-12-15T06:47:07.682Z,995.36
2022-12-15T06:48:07.598Z,995.31
2022-12-15T06:49:07.615Z,995.29
2022-12-15T06:50:07.588Z,995.29
2022-12-15T06:51:13.299Z,995.24
2022-12-15T06:52:07.564Z,995.24
2022-12-15T06:53:07.646Z,995.27
2022-12-15T06:54:07.566Z,995.25
2022-12-15T06:55:07.530Z,995.31
2022-12-15T06:56:07.537Z,995.34
2022-12-15T06:57:07.521Z,995.33
2022-12-15T06:58:07.497Z,995.32
2022-12-15T06:59:07.522Z,995.35
2022-12-15T07:00:07.590Z,995.39
2022-12-15T07:01:07.465Z,995.39
2022-12-15T07:02:07.692Z,995.41
2022-12-15T07:03:07.757Z,995.42
2022-12-15T07:04:07.609Z,995.39
2022-12-15T07:05:07.479Z,995.46
2022-12-15T07:06:07.427Z,995.38
2022-12-15T07:07:07.401Z,995.38
2022-12-15T07:08:07.416Z,995.34
2022-12-15T07:09:07.482Z,995.39
2022-12-15T07:10:07.366Z,995.39
2022-12-15T07:11:07.396Z,995.38
2022-12-15T07:12:07.378Z,995.41
2022-12-15T07:13:07.360Z,995.36
2022-12-15T07:14:07.338Z,995.39
2022-12-15T07:15:07.357Z,995.34
2022-12-15T07:16:07.386Z,995.34
2022-12-15T07:17:07.355Z,995.38
2022-12-15T07:18:07.282Z,995.34
2022-12-15T07:19:07.278Z,995.44
2022-12-15T07:20:07.296Z,995.40
2022-12-15T07:21:07.252Z,995.40
2022-12-15T07:22:07.266Z,995.46
2022-12-15T07:23:07.298Z,995.42
2022-12-15T07:24:08.090Z,995.51
2022-12-15T07:25:07.213Z,995.49
2022-12-15T07:26:11.396Z,995.54
2022-12-15T07:27:07.190Z,995.54
2022-12-15T07:28:07.182Z,995.59
2022-12-15T07:29:07.260Z,995.52
2022-12-15T07:30:07.160Z,995.60
2022-12-15T07:31:07.274Z,995.70
2022-12-15T07:32:07.244Z,995.63
2022-12-15T07:33:07.128Z,995.65
2022-12-15T07:34:07.146Z,995.64
2022-12-15T07:35:07.197Z,995.66
2022-12-15T07:36:07.691Z,995.75
2022-12-15T07:37:07.096Z,995.65
2022-12-15T07:38:07.086Z,995.69
2022-12-15T07:39:07.101Z,995.62
2022-12-15T07:40:07.052Z,995.73
2022-12-15T07:41:07.081Z,995.74
2022-12-15T07:42:07.065Z,995.65
2022-12-15T07:43:07.025Z,995.68
2022-12-15T07:44:07.023Z,995.76
2022-12-15T07:45:07.039Z,995.77
2022-12-15T07:46:07.021Z,995.81
2022-12-15T07:47:07.056Z,995.79
2022-12-15T07:48:06.974Z,995.82
2022-12-15T07:49:06.997Z,995.92
2022-12-15T07:50:06.959Z,995.92
2022-12-15T07:51:12.325Z,995.89
2022-12-15T07:52:06.929Z,995.83
2022-12-15T07:53:06.940Z,995.91
2022-12-15T07:54:06.939Z,995.88
2022-12-15T07:55:06.935Z,995.78
2022-12-15T07:56:08.908Z,995.91
2022-12-15T07:57:06.879Z,995.84
2022-12-15T07:58:06.864Z,995.96
2022-12-15T07:59:06.945Z,995.90
2022-12-15T08:00:06.842Z,995.92
2022-12-15T08:01:07.154Z,995.92
2022-12-15T08:02:07.081Z,995.91
2022-12-15T08:03:06.993Z,996.01
2022-12-15T08:04:06.946Z,995.95
2022-12-15T08:05:06.822Z,995.95
2022-12-15T08:06:06.816Z,995.96
2022-12-15T08:07:06.773Z,995.96
2022-12-15T08:08:10.900Z,995.99
2022-12-15T08:09:06.752Z,995.95
2022-12-15T08:10:06.738Z,995.98
2022-12-15T08:11:06.802Z,995.97
2022-12-15T08:12:06.717Z,995.96
2022-12-15T08:13:06.710Z,996.03
2022-12-15T08:14:13.326Z,996.06
2022-12-15T08:15:07.688Z,996.03
2022-12-15T08:16:06.745Z,996.06
2022-12-15T08:17:06.776Z,996.01
2022-12-15T08:18:06.701Z,996.04
2022-12-15T08:19:06.648Z,996.06
2022-12-15T08:20:10.086Z,996.08
2022-12-15T08:21:06.707Z,996.04
2022-12-15T08:22:06.673Z,996.10
2022-12-15T08:23:06.604Z,996.14
2022-12-15T08:24:06.673Z,996.12
2022-12-15T08:25:06.587Z,996.17
2022-12-15T08:26:06.586Z,996.12
2022-12-15T08:27:06.594Z,996.16
2022-12-15T08:28:06.552Z,996.12
2022-12-15T08:29:40.575Z,996.13
2022-12-15T08:30:07.633Z,996.18
2022-12-15T08:31:06.523Z,996.18
2022-12-15T08:32:06.661Z,996.17
2022-12-15T08:33:06.582Z,996.17
2022-12-15T08:34:06.491Z,996.21
2022-12-15T08:35:19.918Z,996.22
2022-12-15T08:36:06.470Z,996.19
2022-12-15T08:37:06.481Z,996.21
2022-12-15T08:38:06.609Z,996.29
2022-12-15T08:39:06.438Z,996.22
2022-12-15T08:40:06.428Z,996.22
2022-12-15T08:41:06.417Z,996.23
2022-12-15T08:42:06.434Z,996.19
2022-12-15T08:43:06.401Z,996.21
2022-12-15T08:44:06.538Z,996.17
2022-12-15T08:45:06.371Z,996.18
2022-12-15T08:46:06.540Z,996.15
2022-12-15T08:47:06.351Z,996.13
2022-12-15T08:48:06.340Z,996.18
2022-12-15T08:49:06.355Z,996.16
2022-12-15T08:50:06.341Z,996.22
2022-12-15T08:51:06.307Z,996.21
2022-12-15T08:52:06.425Z,996.23
2022-12-15T08:53:30.242Z,996.25
2022-12-15T08:54:07.290Z,996.23
2022-12-15T08:55:06.295Z,996.25
2022-12-15T08:56:06.274Z,996.26
2022-12-15T08:57:06.293Z,996.25
2022-12-15T08:58:06.239Z,996.25
2022-12-15T08:59:06.238Z,996.23
2022-12-15T09:00:06.362Z,996.26
2022-12-15T09:01:06.368Z,996.29
2022-12-15T09:02:06.376Z,996.32
2022-12-15T09:03:06.178Z,996.32
2022-12-15T09:04:06.221Z,996.41
2022-12-15T09:05:06.270Z,996.37
2022-12-15T09:06:06.162Z,996.42
2022-12-15T09:07:06.257Z,996.41
2022-12-15T09:08:06.928Z,996.42
2022-12-15T09:09:06.115Z,996.33
2022-12-15T09:10:06.114Z,996.35
2022-12-15T09:11:06.105Z,996.39
2022-12-15T09:12:06.112Z,996.42
2022-12-15T09:13:06.119Z,996.38
2022-12-15T09:14:06.073Z,996.41
2022-12-15T09:15:06.049Z,996.34
2022-12-15T09:16:10.722Z,996.33
2022-12-15T09:17:07.119Z,996.40
2022-12-15T09:18:06.019Z,996.39
2022-12-15T09:19:06.069Z,996.40
2022-12-15T09:20:06.010Z,996.36
2022-12-15T09:21:06.001Z,996.36
2022-12-15T09:22:05.985Z,996.36
2022-12-15T09:23:05.977Z,996.33
2022-12-15T09:24:05.982Z,996.40
2022-12-15T09:25:06.085Z,996.23
2022-12-15T09:26:06.112Z,996.38
2022-12-15T09:27:05.986Z,996.40
2022-12-15T09:28:05.974Z,996.27
2022-12-15T09:29:06.025Z,996.25
2022-12-15T09:30:05.986Z,996.27
2022-12-15T09:31:06.126Z,996.23
2022-12-15T09:32:12.156Z,996.24
2022-12-15T09:33:05.905Z,996.27
2022-12-15T09:34:05.851Z,996.34
2022-12-15T09:35:05.878Z,996.29
2022-12-15T09:36:05.825Z,996.33
2022-12-15T09:37:05.858Z,996.32
2022-12-15T09:38:05.807Z,996.41
2022-12-15T09:39:05.796Z,996.36
2022-12-15T09:40:05.816Z,996.43
2022-12-15T09:41:05.842Z,996.42
2022-12-15T09:42:05.766Z,996.47
2022-12-15T09:43:33.446Z,996.44
2022-12-15T09:44:05.743Z,996.46
2022-12-15T09:45:05.730Z,996.52
2022-12-15T09:46:05.791Z,996.51
2022-12-15T09:47:05.849Z,996.49
2022-12-15T09:48:05.699Z,996.54
2022-12-15T09:49:05.693Z,996.46
2022-12-15T09:50:05.678Z,996.44
2022-12-15T09:51:05.707Z,996.53
2022-12-15T09:52:10.664Z,996.46
2022-12-15T09:53:23.138Z,996.47
2022-12-15T09:54:06.999Z,996.56
2022-12-15T09:55:05.682Z,996.49
2022-12-15T09:56:05.647Z,996.51
2022-12-15T09:57:05.604Z,996.47
2022-12-15T09:58:10.793Z,996.47
2022-12-15T09:59:06.609Z,996.52
2022-12-15T10:00:05.609Z,996.56
2022-12-15T10:01:05.574Z,996.59
2022-12-15T10:02:05.703Z,996.64
2022-12-15T10:03:05.715Z,996.66
2022-12-15T10:04:05.614Z,996.61
2022-12-15T10:05:05.550Z,996.67
2022-12-15T10:06:22.628Z,996.74
2022-12-15T10:07:06.496Z,996.70
2022-12-15T10:08:05.484Z,996.73
2022-12-15T10:09:05.599Z,996.65
2022-12-15T10:10:05.468Z,996.68
2022-12-15T10:11:05.515Z,996.66
2022-12-15T10:12:05.491Z,996.65
2022-12-15T10:13:05.500Z,996.61
2022-12-15T10:14:05.596Z,996.65
2022-12-15T10:15:05.413Z,996.66
2022-12-15T10:16:05.434Z,996.65
2022-12-15T10:17:05.488Z,996.65
2022-12-15T10:18:05.387Z,996.68
2022-12-15T10:19:05.380Z,996.71
2022-12-15T10:20:05.397Z,996.70
2022-12-15T10:21:05.348Z,996.74
2022-12-15T10:22:05.373Z,996.79
2022-12-15T10:23:05.436Z,996.85
2022-12-15T10:24:05.377Z,996.75
2022-12-15T10:25:10.133Z,996.78
2022-12-15T10:26:06.295Z,996.80
2022-12-15T10:27:05.284Z,996.84
2022-12-15T10:28:05.284Z,996.80
2022-12-15T10:29:05.342Z,996.86
2022-12-15T10:30:05.329Z,996.83
2022-12-15T10:31:05.302Z,996.80
2022-12-15T10:32:05.235Z,996.82
2022-12-15T10:33:05.271Z,996.82
2022-12-15T10:34:05.218Z,996.86
2022-12-15T10:35:05.275Z,996.82
2022-12-15T10:36:05.287Z,996.86
2022-12-15T10:37:05.225Z,996.80
2022-12-15T10:38:05.165Z,996.84
2022-12-15T10:39:05.216Z,996.72
2022-12-15T10:40:05.152Z,996.75
2022-12-15T10:41:05.185Z,996.76
2022-12-15T10:42:05.130Z,996.69
2022-12-15T10:43:05.213Z,996.70
2022-12-15T10:44:05.108Z,996.76
2022-12-15T10:45:05.091Z,996.77
2022-12-15T10:46:05.163Z,996.76
2022-12-15T10:47:05.070Z,996.82
2022-12-15T10:48:05.067Z,996.81
2022-12-15T10:49:05.067Z,996.83
2022-12-15T10:50:05.039Z,996.82
2022-12-15T10:51:05.057Z,996.80
2022-12-15T10:52:05.164Z,996.79
2022-12-15T10:53:05.042Z,996.81
2022-12-15T10:54:05.017Z,996.83
2022-12-15T10:55:05.056Z,996.89
2022-12-15T10:56:04.973Z,996.87
2022-12-15T10:57:05.121Z,996.92
2022-12-15T10:58:05.022Z,996.84
2022-12-15T10:59:04.942Z,996.81
2022-12-15T11:00:04.984Z,996.79
2022-12-15T11:01:04.969Z,996.77
2022-12-15T11:02:05.091Z,996.80
2022-12-15T11:03:05.206Z,996.78
2022-12-15T11:04:05.064Z,996.77
2022-12-15T11:05:04.879Z,996.71
2022-12-15T11:06:04.871Z,996.75
2022-12-15T11:07:04.874Z,996.66
2022-12-15T11:08:09.087Z,996.76
2022-12-15T11:09:04.953Z,996.81
2022-12-15T11:10:04.823Z,996.70
2022-12-15T11:11:07.681Z,996.72
2022-12-15T11:12:04.855Z,996.78
2022-12-15T11:13:04.892Z,996.74
2022-12-15T11:14:04.785Z,996.73
2022-12-15T11:15:04.820Z,996.66
2022-12-15T11:16:04.766Z,996.73
2022-12-15T11:17:04.747Z,996.67
2022-12-15T11:18:04.742Z,996.74
2022-12-15T11:19:04.745Z,996.82
2022-12-15T11:20:04.764Z,996.79
2022-12-15T11:21:04.703Z,996.77
2022-12-15T11:22:04.722Z,996.78
2022-12-15T11:23:04.682Z,996.78
2022-12-15T11:24:04.707Z,996.74
2022-12-15T11:25:04.700Z,996.81
2022-12-15T11:26:07.150Z,996.73
2022-12-15T11:27:04.673Z,996.85
2022-12-15T11:28:04.629Z,996.75
2022-12-15T11:29:04.641Z,996.81
2022-12-15T11:30:04.621Z,996.80
2022-12-15T11:31:04.641Z,996.86
2022-12-15T11:32:07.353Z,996.79
2022-12-15T11:33:04.596Z,996.75
2022-12-15T11:34:04.565Z,996.80
2022-12-15T11:35:04.555Z,996.80
2022-12-15T11:36:04.570Z,996.83
2022-12-15T11:37:04.534Z,996.75
2022-12-15T11:38:04.520Z,996.86
2022-12-15T11:39:04.586Z,996.83
2022-12-15T11:40:04.504Z,996.84
2022-12-15T11:41:04.534Z,996.84
2022-12-15T11:42:04.518Z,996.84
2022-12-15T11:43:04.471Z,996.81
2022-12-15T11:44:06.658Z,996.82
2022-12-15T11:45:04.466Z,996.78
2022-12-15T11:46:04.441Z,996.71
2022-12-15T11:47:04.431Z,996.76
2022-12-15T11:48:04.438Z,996.82
2022-12-15T11:49:04.404Z,996.82
2022-12-15T11:50:04.396Z,996.82
2022-12-15T11:51:04.414Z,996.86
2022-12-15T11:52:04.377Z,996.77
2022-12-15T11:53:04.406Z,996.79
2022-12-15T11:54:04.389Z,996.73
2022-12-15T11:55:04.347Z,996.71
2022-12-15T11:56:04.327Z,996.76
2022-12-15T11:57:04.330Z,996.75
2022-12-15T11:58:04.341Z,996.69
2022-12-15T11:59:04.329Z,996.65
2022-12-15T12:00:04.303Z,996.67
2022-12-15T12:01:04.339Z,996.70
2022-12-15T12:02:04.458Z,996.73
2022-12-15T12:03:04.290Z,996.67
2022-12-15T12:04:04.241Z,996.72
2022-12-15T12:05:04.246Z,996.66
2022-12-15T12:06:04.242Z,996.67
2022-12-15T12:07:04.245Z,996.62
2022-12-15T12:08:04.206Z,996.61
2022-12-15T12:09:04.213Z,996.63
2022-12-15T12:10:04.213Z,996.62
2022-12-15T12:11:04.264Z,996.65
2022-12-15T12:12:04.181Z,996.59
2022-12-15T12:13:04.145Z,996.54
2022-12-15T12:14:09.698Z,996.59
2022-12-15T12:15:04.161Z,996.51
2022-12-15T12:16:04.164Z,996.59
2022-12-15T12:17:04.155Z,996.50
2022-12-15T12:18:04.119Z,996.57
2022-12-15T12:19:04.149Z,996.58
2022-12-15T12:20:11.059Z,996.59
2022-12-15T12:21:04.089Z,996.59
2022-12-15T12:22:04.051Z,996.56
2022-12-15T12:23:04.054Z,996.66
2022-12-15T12:24:04.074Z,996.57
2022-12-15T12:25:04.020Z,996.56
2022-12-15T12:26:04.045Z,996.59
2022-12-15T12:27:04.021Z,996.55
2022-12-15T12:28:04.028Z,996.54